createdAt,value
2023-05-23T00:01:10.406Z,8.55
2023-05-23T00:03:37.460Z,9.20
2023-05-23T00:06:06.387Z,8.68
2023-05-23T00:08:33.014Z,7.65
2023-05-23T00:10:59.672Z,7.82
2023-05-23T00:13:26.815Z,7.72
2023-05-23T00:15:53.614Z,8.95
2023-05-23T00:18:20.397Z,7.82
2023-05-23T00:20:47.151Z,6.30
2023-05-23T00:23:18.901Z,7.82
2023-05-23T00:25:48.453Z,7.68
2023-05-23T00:28:16.028Z,7.80
2023-05-23T00:30:43.087Z,7.60
2023-05-23T00:33:10.080Z,7.30
2023-05-23T00:35:36.866Z,6.18
2023-05-23T00:38:03.602Z,6.10
2023-05-23T00:40:30.310Z,6.45
2023-05-23T00:42:56.961Z,5.97
2023-05-23T00:45:23.586Z,5.63
2023-05-23T00:47:51.481Z,5.03
2023-05-23T00:50:19.511Z,5.60
2023-05-23T00:52:46.558Z,4.68
2023-05-23T00:55:13.410Z,4.07
2023-05-23T00:57:40.892Z,4.68
2023-05-23T01:00:12.702Z,4.90
2023-05-23T01:02:43.528Z,4.68
2023-05-23T01:05:11.485Z,4.70
2023-05-23T01:07:38.174Z,5.47
2023-05-23T01:10:05.277Z,5.18
2023-05-23T01:12:48.523Z,4.85
2023-05-23T01:15:20.836Z,5.20
2023-05-23T01:17:56.101Z,5.60
2023-05-23T01:20:25.748Z,5.30
2023-05-23T01:23:01.214Z,5.38
2023-05-23T01:25:43.196Z,5.10
2023-05-23T01:28:13.675Z,5.88
2023-05-23T01:30:41.063Z,5.78
2023-05-23T01:33:09.370Z,5.75
2023-05-23T01:35:36.893Z,5.70
2023-05-23T01:38:03.579Z,6.25
2023-05-23T01:40:30.274Z,6.10
2023-05-23T01:42:59.618Z,5.82
2023-05-23T01:45:28.296Z,5.78
2023-05-23T01:47:56.329Z,5.93
2023-05-23T01:50:24.132Z,5.45
2023-05-23T01:52:50.994Z,5.90
2023-05-23T01:55:22.732Z,6.22
2023-05-23T01:57:55.112Z,5.85
2023-05-23T02:00:22.037Z,6.30
2023-05-23T02:02:48.980Z,6.20
2023-05-23T02:05:17.192Z,6.18
2023-05-23T02:07:45.337Z,7.20
2023-05-23T02:10:11.950Z,6.82
2023-05-23T02:12:38.540Z,6.65
2023-05-23T02:15:05.791Z,6.20
2023-05-23T02:17:32.641Z,6.78
2023-05-23T02:19:59.777Z,6.45
2023-05-23T02:22:26.475Z,6.57
2023-05-23T02:24:53.142Z,6.47
2023-05-23T02:27:19.922Z,7.10
2023-05-23T02:29:46.612Z,6.85
2023-05-23T02:32:13.468Z,7.28
2023-05-23T02:34:40.664Z,6.70
2023-05-23T02:37:07.925Z,7.43
2023-05-23T02:39:36.681Z,7.75
2023-05-23T02:42:04.632Z,6.60
2023-05-23T02:44:32.047Z,6.80
2023-05-23T02:46:58.748Z,6.85
2023-05-23T02:49:25.670Z,7.65
2023-05-23T02:51:52.501Z,7.90
2023-05-23T02:54:19.119Z,7.65
2023-05-23T02:56:46.570Z,7.70
2023-05-23T02:59:13.711Z,9.05
2023-05-23T03:01:40.699Z,10.07
2023-05-23T03:04:07.606Z,9.45
2023-05-23T03:06:36.731Z,10.55
2023-05-23T03:09:03.937Z,10.52
2023-05-23T03:11:30.670Z,11.18
2023-05-23T03:13:59.512Z,11.27
2023-05-23T03:16:26.401Z,11.30
2023-05-23T03:18:53.546Z,10.75
2023-05-23T03:21:20.311Z,10.90
2023-05-23T03:23:47.650Z,11.45
2023-05-23T03:26:14.558Z,11.98
2023-05-23T03:28:41.366Z,11.32
2023-05-23T03:31:08.102Z,11.13
2023-05-23T03:33:34.846Z,11.27
2023-05-23T03:36:01.547Z,11.30
2023-05-23T03:38:28.388Z,11.85
2023-05-23T03:40:55.196Z,11.00
2023-05-23T03:43:22.076Z,11.55
2023-05-23T03:45:48.883Z,10.50
2023-05-23T03:48:17.664Z,9.30
2023-05-23T03:50:44.725Z,10.50
2023-05-23T03:53:12.099Z,10.02
2023-05-23T03:55:39.565Z,10.30
2023-05-23T03:58:07.233Z,9.93
2023-05-23T04:00:34.104Z,8.85
2023-05-23T04:03:03.521Z,8.70
2023-05-23T04:05:30.836Z,9.18
2023-05-23T04:08:01.266Z,9.52
2023-05-23T04:10:28.498Z,9.02
2023-05-23T04:12:56.893Z,8.75
2023-05-23T04:15:23.723Z,8.02
2023-05-23T04:17:57.078Z,8.80
2023-05-23T04:20:25.959Z,9.07
2023-05-23T04:22:53.058Z,8.02
2023-05-23T04:25:20.243Z,8.85
2023-05-23T04:28:03.024Z,8.77
2023-05-23T04:30:30.543Z,8.32
2023-05-23T04:33:00.716Z,7.43
2023-05-23T04:35:29.067Z,7.55
2023-05-23T04:37:56.731Z,9.05
2023-05-23T04:40:25.376Z,8.57
2023-05-23T04:43:03.895Z,7.80
2023-05-23T04:45:38.948Z,7.68
2023-05-23T04:48:21.647Z,7.15
2023-05-23T04:50:51.097Z,7.32
2023-05-23T04:53:18.111Z,6.20
2023-05-23T04:55:45.814Z,6.85
2023-05-23T04:58:17.011Z,7.20
2023-05-23T05:00:44.580Z,7.45
2023-05-23T05:03:12.978Z,7.80
2023-05-23T05:05:43.406Z,8.00
2023-05-23T05:08:10.136Z,7.60
2023-05-23T05:10:36.954Z,7.85
2023-05-23T05:13:03.753Z,7.68
2023-05-23T05:15:39.166Z,7.47
2023-05-23T05:18:05.859Z,7.93
2023-05-23T05:20:32.594Z,7.40
2023-05-23T05:22:59.258Z,7.90
2023-05-23T05:25:27.428Z,8.25
2023-05-23T05:27:54.086Z,7.68
2023-05-23T05:30:21.878Z,7.55
2023-05-23T05:32:58.152Z,7.55
2023-05-23T05:35:24.950Z,8.13
2023-05-23T05:37:51.605Z,6.93
2023-05-23T05:40:18.914Z,6.97
2023-05-23T05:42:45.530Z,7.65
2023-05-23T05:45:12.279Z,8.60
2023-05-23T05:47:40.582Z,8.15
2023-05-23T05:50:11.323Z,8.18
2023-05-23T05:52:40.854Z,9.02
2023-05-23T05:55:14.171Z,7.75
2023-05-23T05:57:47.360Z,8.43
2023-05-23T06:00:18.807Z,9.38
2023-05-23T06:02:51.311Z,8.98
2023-05-23T06:05:28.684Z,9.48
2023-05-23T06:07:55.389Z,8.90
2023-05-23T06:10:22.157Z,8.40
2023-05-23T06:12:50.470Z,9.25
2023-05-23T06:15:17.773Z,9.65
2023-05-23T06:17:45.380Z,9.00
2023-05-23T06:20:13.234Z,8.90
2023-05-23T06:22:43.362Z,9.88
2023-05-23T06:25:10.113Z,9.15
2023-05-23T06:27:37.994Z,8.85
2023-05-23T06:30:06.028Z,7.70
2023-05-23T06:32:32.699Z,9.18
2023-05-23T06:34:59.392Z,7.72
2023-05-23T06:37:26.420Z,8.45
2023-05-23T06:39:53.179Z,7.72
2023-05-23T06:42:19.821Z,7.35
2023-05-23T06:44:56.770Z,6.20
2023-05-23T06:47:24.952Z,6.28
2023-05-23T06:49:51.744Z,5.90
2023-05-23T06:52:18.427Z,5.68
2023-05-23T06:54:45.460Z,4.95
2023-05-23T06:57:12.300Z,5.65
2023-05-23T06:59:44.204Z,4.72
2023-05-23T07:02:11.159Z,5.35
2023-05-23T07:04:38.651Z,5.70
2023-05-23T07:07:10.890Z,5.65
2023-05-23T07:09:38.997Z,5.53
2023-05-23T07:12:13.049Z,5.45
2023-05-23T07:14:43.141Z,5.63
2023-05-23T07:17:10.754Z,5.63
2023-05-23T07:19:38.603Z,4.68
2023-05-23T07:22:06.107Z,4.43
2023-05-23T07:24:34.889Z,5.13
2023-05-23T07:27:01.608Z,4.93
2023-05-23T07:29:29.403Z,6.07
2023-05-23T07:31:56.628Z,5.80
2023-05-23T07:34:24.022Z,5.20
2023-05-23T07:36:54.665Z,5.50
2023-05-23T07:39:24.391Z,5.38
2023-05-23T07:41:52.052Z,5.85
2023-05-23T07:44:22.333Z,6.45
2023-05-23T07:46:50.859Z,6.68
2023-05-23T07:49:17.715Z,5.93
2023-05-23T07:51:44.501Z,6.97
2023-05-23T07:54:11.489Z,7.03
2023-05-23T07:56:40.756Z,6.97
2023-05-23T07:59:08.928Z,6.32
2023-05-23T08:01:36.557Z,6.18
2023-05-23T08:04:05.079Z,6.43
2023-05-23T08:06:35.426Z,6.40
2023-05-23T08:09:06.759Z,6.80
2023-05-23T08:11:37.397Z,6.03
2023-05-23T08:14:04.127Z,5.97
2023-05-23T08:16:37.592Z,5.82
2023-05-23T08:19:08.739Z,5.72
2023-05-23T08:21:36.414Z,5.30
2023-05-23T08:24:03.595Z,5.35
2023-05-23T08:26:34.759Z,4.60
2023-05-23T08:29:02.734Z,5.00
2023-05-23T08:31:31.558Z,5.93
2023-05-23T08:33:59.168Z,4.93
2023-05-23T08:36:25.993Z,4.68
2023-05-23T08:38:53.402Z,5.65
2023-05-23T08:41:30.297Z,5.20
2023-05-23T08:44:07.359Z,4.47
2023-05-23T08:46:44.741Z,4.97
2023-05-23T08:49:16.643Z,4.13
2023-05-23T08:51:43.876Z,4.53
2023-05-23T08:54:17.112Z,4.05
2023-05-23T08:56:43.957Z,4.05
2023-05-23T08:59:11.864Z,4.20
2023-05-23T09:01:41.389Z,3.65
2023-05-23T09:04:11.277Z,4.30
2023-05-23T09:07:00.301Z,4.40
2023-05-23T09:09:28.309Z,4.95
2023-05-23T09:11:55.542Z,4.85
2023-05-23T09:14:22.525Z,4.32
2023-05-23T09:16:51.840Z,5.30
2023-05-23T09:19:22.277Z,4.57
2023-05-23T09:21:55.922Z,5.38
2023-05-23T09:24:37.039Z,5.28
2023-05-23T09:27:09.258Z,6.18
2023-05-23T09:29:41.713Z,6.03
2023-05-23T09:32:16.289Z,6.10
2023-05-23T09:34:57.064Z,6.57
2023-05-23T09:37:32.738Z,5.88
2023-05-23T09:40:06.792Z,6.07
2023-05-23T09:42:36.968Z,6.18
2023-05-23T09:45:04.963Z,5.88
2023-05-23T09:47:32.345Z,5.55
2023-05-23T09:49:59.119Z,5.88
2023-05-23T09:52:27.733Z,6.03
2023-05-23T09:54:54.614Z,6.00
2023-05-23T09:57:23.130Z,5.45
2023-05-23T09:59:54.276Z,6.30
2023-05-23T10:02:51.332Z,6.13
2023-05-23T10:05:32.036Z,6.18
2023-05-23T10:08:01.270Z,6.10
2023-05-23T10:10:31.669Z,5.97
2023-05-23T10:12:58.767Z,5.50
2023-05-23T10:15:28.003Z,6.00
2023-05-23T10:18:08.010Z,5.55
2023-05-23T10:20:36.397Z,5.57
2023-05-23T10:23:05.241Z,5.90
2023-05-23T10:25:32.109Z,5.43
2023-05-23T10:28:01.570Z,5.80
2023-05-23T10:30:30.029Z,4.88
2023-05-23T10:32:57.299Z,4.55
2023-05-23T10:35:30.452Z,5.60
2023-05-23T10:38:01.978Z,4.85
2023-05-23T10:40:33.630Z,5.00
2023-05-23T10:43:10.360Z,4.68
2023-05-23T10:45:44.497Z,4.00
2023-05-23T10:48:22.092Z,5.00
2023-05-23T10:51:20.492Z,3.92
2023-05-23T10:53:53.919Z,3.70
2023-05-23T10:56:25.010Z,4.47
2023-05-23T10:58:56.162Z,4.18
2023-05-23T11:01:24.329Z,4.20
2023-05-23T11:03:54.583Z,4.00
2023-05-23T11:06:44.712Z,4.35
2023-05-23T11:09:19.317Z,3.00
2023-05-23T11:11:59.332Z,3.72
2023-05-23T11:14:55.129Z,3.80
2023-05-23T11:17:33.613Z,3.33
2023-05-23T11:20:07.433Z,3.92
2023-05-23T11:22:35.033Z,3.63
2023-05-23T11:25:06.545Z,3.53
2023-05-23T11:27:38.050Z,3.50
2023-05-23T11:30:13.843Z,2.88
2023-05-23T11:32:41.593Z,3.28
2023-05-23T11:35:10.111Z,3.72
2023-05-23T11:37:39.092Z,3.03
2023-05-23T11:40:26.323Z,2.60
2023-05-23T11:42:54.521Z,3.25
2023-05-23T11:45:25.000Z,3.20
2023-05-23T11:47:51.884Z,3.42
2023-05-23T11:50:20.546Z,3.45
2023-05-23T11:52:51.524Z,2.90
2023-05-23T11:55:19.926Z,3.40
2023-05-23T11:57:46.780Z,2.55
2023-05-23T12:00:14.037Z,3.33
2023-05-23T12:02:41.572Z,3.40
2023-05-23T12:05:13.958Z,3.60
2023-05-23T12:07:47.006Z,3.28
2023-05-23T12:10:17.497Z,3.35
2023-05-23T12:12:46.256Z,3.33
2023-05-23T12:15:13.601Z,3.33
2023-05-23T12:17:47.273Z,3.40
2023-05-23T12:20:14.187Z,2.67
2023-05-23T12:22:42.227Z,3.28
2023-05-23T12:25:10.651Z,3.15
2023-05-23T12:27:40.094Z,3.78
2023-05-23T12:30:09.828Z,3.97
2023-05-23T12:32:41.526Z,3.65
2023-05-23T12:35:09.881Z,3.58
2023-05-23T12:37:46.405Z,3.17
2023-05-23T12:40:19.636Z,3.47
2023-05-23T12:42:56.522Z,3.78
2023-05-23T12:45:24.758Z,3.63
2023-05-23T12:47:53.943Z,3.20
2023-05-23T12:50:21.301Z,3.15
2023-05-23T12:52:47.918Z,3.55
2023-05-23T12:55:14.717Z,3.00
2023-05-23T12:57:41.362Z,2.92
2023-05-23T13:00:12.690Z,3.33
2023-05-23T13:02:40.023Z,3.33
2023-05-23T13:05:07.219Z,3.13
2023-05-23T13:07:33.842Z,3.05
2023-05-23T13:10:01.526Z,3.83
2023-05-23T13:12:28.840Z,2.75
2023-05-23T13:14:55.617Z,2.78
2023-05-23T13:17:22.968Z,3.42
2023-05-23T13:19:49.956Z,3.38
2023-05-23T13:22:17.072Z,3.47
2023-05-23T13:24:43.957Z,3.50
2023-05-23T13:27:11.102Z,3.00
2023-05-23T13:29:38.431Z,2.88
2023-05-23T13:32:05.672Z,3.08
2023-05-23T13:34:33.066Z,3.30
2023-05-23T13:36:59.772Z,2.53
2023-05-23T13:39:26.427Z,3.85
2023-05-23T13:41:53.120Z,2.80
2023-05-23T13:44:19.746Z,2.85
2023-05-23T13:46:47.316Z,2.95
2023-05-23T13:49:14.567Z,3.08
2023-05-23T13:51:43.503Z,2.63
2023-05-23T13:54:10.296Z,3.00
2023-05-23T13:56:39.770Z,3.40
2023-05-23T13:59:06.581Z,2.65
2023-05-23T14:01:33.939Z,3.00
2023-05-23T14:04:00.745Z,3.08
2023-05-23T14:06:27.452Z,2.72
2023-05-23T14:08:54.235Z,3.13
2023-05-23T14:11:20.870Z,2.72
2023-05-23T14:13:47.503Z,2.70
2023-05-23T14:16:14.391Z,2.67
2023-05-23T14:18:43.145Z,2.67
2023-05-23T14:21:09.798Z,2.20
2023-05-23T14:23:36.437Z,2.78
2023-05-23T14:26:03.230Z,1.98
2023-05-23T14:28:29.900Z,2.45
2023-05-23T14:30:56.779Z,2.58
2023-05-23T14:33:23.524Z,2.60
2023-05-23T14:35:50.908Z,2.13
2023-05-23T14:38:19.718Z,2.70
2023-05-23T14:40:47.193Z,2.75
2023-05-23T14:43:13.835Z,2.45
2023-05-23T14:45:40.800Z,2.45
2023-05-23T14:48:08.028Z,2.13
2023-05-23T14:50:34.755Z,2.35
2023-05-23T14:53:01.519Z,2.20
2023-05-23T14:55:28.123Z,2.25
2023-05-23T14:57:54.768Z,2.15
2023-05-23T15:00:21.476Z,2.08
2023-05-23T15:02:49.138Z,2.03
2023-05-23T15:05:17.134Z,2.65
2023-05-23T15:07:44.822Z,2.50
2023-05-23T15:10:11.513Z,2.80
2023-05-23T15:12:38.245Z,2.45
2023-05-23T15:15:05.231Z,2.33
2023-05-23T15:17:35.081Z,2.60
2023-05-23T15:20:03.912Z,2.67
2023-05-23T15:25:03.157Z,2.60
2023-05-23T15:27:29.799Z,2.70
2023-05-23T15:29:56.375Z,2.50
2023-05-23T15:32:23.169Z,2.28
2023-05-23T15:34:50.114Z,2.50
2023-05-23T15:37:17.616Z,2.22
2023-05-23T15:39:44.575Z,2.13
2023-05-23T15:42:11.290Z,2.08
2023-05-23T15:44:38.065Z,1.80
2023-05-23T15:47:05.349Z,2.20
2023-05-23T15:49:31.981Z,2.25
2023-05-23T15:51:58.604Z,2.38
2023-05-23T15:54:25.825Z,2.17
2023-05-23T15:56:52.638Z,2.55
2023-05-23T15:59:19.335Z,2.40
2023-05-23T16:01:46.055Z,2.13
2023-05-23T16:04:12.930Z,2.25
2023-05-23T16:06:39.712Z,1.95
2023-05-23T16:09:06.513Z,2.40
2023-05-23T16:11:33.145Z,2.45
2023-05-23T16:13:59.840Z,1.90
2023-05-23T16:16:26.573Z,2.60
2023-05-23T16:18:53.406Z,2.03
2023-05-23T16:21:20.961Z,1.90
2023-05-23T16:23:50.862Z,2.30
2023-05-23T16:26:18.755Z,2.15
2023-05-23T16:28:45.608Z,2.00
2023-05-23T16:31:16.834Z,2.15
2023-05-23T16:33:44.582Z,2.20
2023-05-23T16:36:11.235Z,1.50
2023-05-23T16:38:38.437Z,2.40
2023-05-23T16:41:05.238Z,2.13
2023-05-23T16:43:31.860Z,2.00
2023-05-23T16:45:58.629Z,2.05
2023-05-23T16:48:25.328Z,1.85
2023-05-23T16:50:54.111Z,2.00
2023-05-23T16:53:21.782Z,3.08
2023-05-23T16:55:48.746Z,2.22
2023-05-23T16:58:16.562Z,2.08
2023-05-23T17:00:45.534Z,2.35
2023-05-23T17:03:12.347Z,2.53
2023-05-23T17:05:39.251Z,2.45
2023-05-23T17:08:06.317Z,2.28
2023-05-23T17:10:33.848Z,1.92
2023-05-23T17:13:00.871Z,2.10
2023-05-23T17:15:27.530Z,2.38
2023-05-23T17:17:54.262Z,1.92
2023-05-23T17:20:23.999Z,1.88
2023-05-23T17:22:53.522Z,1.95
2023-05-23T17:25:20.498Z,1.98
2023-05-23T17:27:47.185Z,2.15
2023-05-23T17:30:19.655Z,2.40
2023-05-23T17:32:46.926Z,2.15
2023-05-23T17:35:13.931Z,1.83
2023-05-23T17:37:43.879Z,2.65
2023-05-23T17:40:12.513Z,2.30
2023-05-23T17:42:40.777Z,2.15
2023-05-23T17:45:09.672Z,2.22
2023-05-23T17:47:36.883Z,2.25
2023-05-23T17:50:04.775Z,2.22
2023-05-23T17:52:31.960Z,2.05
2023-05-23T17:54:58.779Z,1.60
2023-05-23T17:57:25.631Z,2.20
2023-05-23T17:59:52.250Z,1.85
2023-05-23T18:02:18.868Z,1.95
2023-05-23T18:04:45.592Z,1.80
2023-05-23T18:07:12.918Z,2.42
2023-05-23T18:09:39.765Z,1.88
2023-05-23T18:12:06.653Z,2.25
2023-05-23T18:14:33.270Z,1.92
2023-05-23T18:16:59.944Z,2.60
2023-05-23T18:19:26.646Z,2.05
2023-05-23T18:21:53.516Z,1.95
2023-05-23T18:24:20.144Z,1.80
2023-05-23T18:26:46.841Z,1.80
2023-05-23T18:29:13.568Z,2.63
2023-05-23T18:31:40.557Z,2.28
2023-05-23T18:34:07.251Z,2.13
2023-05-23T18:36:33.989Z,2.20
2023-05-23T18:39:01.224Z,2.63
2023-05-23T18:41:28.004Z,2.60
2023-05-23T18:43:55.032Z,2.47
2023-05-23T18:46:24.473Z,2.30
2023-05-23T18:48:57.205Z,2.75
2023-05-23T18:51:26.588Z,2.05
2023-05-23T18:53:53.276Z,2.05
2023-05-23T18:56:22.183Z,2.63
2023-05-23T18:58:50.435Z,2.60
2023-05-23T19:01:17.343Z,2.63
2023-05-23T19:03:45.827Z,2.55
2023-05-23T19:06:12.841Z,2.20
2023-05-23T19:08:41.386Z,2.30
2023-05-23T19:11:08.550Z,2.72
2023-05-23T19:13:35.314Z,2.25
2023-05-23T19:16:02.068Z,2.85
2023-05-23T19:18:28.776Z,2.42
2023-05-23T19:20:57.213Z,2.25
2023-05-23T19:23:24.396Z,2.95
2023-05-23T19:25:51.205Z,2.60
2023-05-23T19:28:18.137Z,3.80
2023-05-23T19:30:44.915Z,2.58
2023-05-23T19:33:11.877Z,2.80
2023-05-23T19:35:38.928Z,2.50
2023-05-23T19:38:06.638Z,2.80
2023-05-23T19:40:33.571Z,2.58
2023-05-23T19:43:00.274Z,2.45
2023-05-23T19:45:29.904Z,2.00
2023-05-23T19:47:58.347Z,2.70
2023-05-23T19:50:25.213Z,2.55
2023-05-23T19:52:52.296Z,2.35
2023-05-23T19:55:20.176Z,2.40
2023-05-23T19:57:46.863Z,2.63
2023-05-23T20:00:14.848Z,2.30
2023-05-23T20:02:42.361Z,2.20
2023-05-23T20:05:09.586Z,2.30
2023-05-23T20:07:39.759Z,2.55
2023-05-23T20:10:07.702Z,2.92
2023-05-23T20:12:35.114Z,2.47
2023-05-23T20:15:02.751Z,2.58
2023-05-23T20:17:30.524Z,2.55
2023-05-23T20:19:57.257Z,2.22
2023-05-23T20:22:23.994Z,2.60
2023-05-23T20:24:50.672Z,3.20
2023-05-23T20:27:17.858Z,2.20
2023-05-23T20:29:44.566Z,2.30
2023-05-23T20:32:11.272Z,2.35
2023-05-23T20:34:39.068Z,2.08
2023-05-23T20:37:05.728Z,2.22
2023-05-23T20:39:32.354Z,2.75
2023-05-23T20:41:59.716Z,2.17
2023-05-23T20:44:26.817Z,2.40
2023-05-23T20:46:53.536Z,2.70
2023-05-23T20:49:21.992Z,3.40
2023-05-23T20:51:49.482Z,2.75
2023-05-23T20:54:16.157Z,2.58
2023-05-23T20:56:42.776Z,2.60
2023-05-23T20:59:12.549Z,2.53
2023-05-23T21:01:40.210Z,2.80
2023-05-23T21:04:07.017Z,2.38
2023-05-23T21:06:34.155Z,2.25
2023-05-23T21:09:00.915Z,2.10
2023-05-23T21:11:28.836Z,2.17
2023-05-23T21:13:55.542Z,2.38
2023-05-23T21:16:22.164Z,2.13
2023-05-23T21:18:48.885Z,2.50
2023-05-23T21:21:15.644Z,2.05
2023-05-23T21:23:42.423Z,2.15
2023-05-23T21:26:09.112Z,2.22
2023-05-23T21:28:35.849Z,2.72
2023-05-23T21:31:03.416Z,2.40
2023-05-23T21:33:30.300Z,2.00
2023-05-23T21:35:58.729Z,2.00
2023-05-23T21:38:27.622Z,2.25
2023-05-23T21:40:54.307Z,2.10
2023-05-23T21:43:20.913Z,1.90
2023-05-23T21:45:47.626Z,2.10
2023-05-23T21:48:14.300Z,2.30
2023-05-23T21:50:41.146Z,2.10
2023-05-23T21:53:07.914Z,2.05
2023-05-23T21:55:34.575Z,2.20
2023-05-23T21:58:01.258Z,2.35
2023-05-23T22:00:27.925Z,2.15
2023-05-23T22:02:54.835Z,2.50
2023-05-23T22:05:21.830Z,2.08
2023-05-23T22:07:48.510Z,2.45
2023-05-23T22:10:15.100Z,2.30
2023-05-23T22:12:41.763Z,2.30
2023-05-23T22:15:09.015Z,2.00
2023-05-23T22:17:35.829Z,2.28
2023-05-23T22:20:05.097Z,2.72
2023-05-23T22:22:31.861Z,2.35
2023-05-23T22:24:59.265Z,2.55
2023-05-23T22:27:26.163Z,2.55
2023-05-23T22:29:52.936Z,2.55
2023-05-23T22:32:20.967Z,2.20
2023-05-23T22:34:47.659Z,2.40
2023-05-23T22:37:15.728Z,2.10
2023-05-23T22:39:42.517Z,1.88
2023-05-23T22:42:09.368Z,2.38
2023-05-23T22:44:36.231Z,2.55
2023-05-23T22:47:04.232Z,2.67
2023-05-23T22:49:31.138Z,2.75
2023-05-23T22:51:57.941Z,2.60
2023-05-23T22:54:24.588Z,2.83
2023-05-23T22:56:51.305Z,2.90
2023-05-23T22:59:17.925Z,3.70
2023-05-23T23:01:44.672Z,3.05
2023-05-23T23:04:12.169Z,2.30
2023-05-23T23:06:43.003Z,3.35
2023-05-23T23:09:10.345Z,2.63
2023-05-23T23:11:37.027Z,2.92
2023-05-23T23:14:03.702Z,2.58
2023-05-23T23:16:30.623Z,2.58
2023-05-23T23:18:57.447Z,2.58
2023-05-23T23:21:24.098Z,2.40
2023-05-23T23:23:51.773Z,2.83
2023-05-23T23:26:18.571Z,2.28
2023-05-23T23:28:45.340Z,3.00
2023-05-23T23:31:12.045Z,2.60
2023-05-23T23:33:38.809Z,2.58
2023-05-23T23:36:06.320Z,2.60
2023-05-23T23:38:32.953Z,2.83
2023-05-23T23:40:59.561Z,2.30
2023-05-23T23:43:26.155Z,2.75
2023-05-23T23:45:52.829Z,2.90
2023-05-23T23:48:19.515Z,2.10
2023-05-23T23:50:46.151Z,2.90
2023-05-23T23:53:12.845Z,2.88
2023-05-23T23:55:39.511Z,2.95
2023-05-23T23:58:06.212Z,3.22
